ROYN/OGN METAR and TAF weather

Enter ICAO airport designator
Station Type Date Time Source
ROYN METAR 2022/11/30 16:00 UTC NOAA

ROYN 301600Z AUTO 04025KT 4600 -RA BR SCT010 SCT021 BKN025 20/19 Q1021


Station Type Date Time Source
ROYN Decoded METAR 2022/11/30 16:00 UTC NOAA

Yonaguni Airport, Japan (ROYN) 24-28N 122-59E 19M
Nov 30, 2022 - 11:00 AM EST / 2022.11.30 1600 UTC
Wind: from the NE (040 degrees) at 29 MPH (25 KT):0
Visibility: 2 mile(s):0
Sky conditions: mostly cloudy
Weather: light rain; mist
Temperature: 68 F (20 C)
Dew Point: 66 F (19 C)
Relative Humidity: 93%
Pressure (altimeter): 30.15 in. Hg (1021 hPa)
ob: ROYN 301600Z AUTO 04025KT 4600 -RA BR SCT010 SCT021 BKN025 20/19 Q1021
cycle: 16

Station Type Date Time Source
ROYN TAF UTC NOAA

Error!

Example: see airport list